Swanley, United Kingdom
Current Conditions -  °F | °C
As of 8:20 PM on Friday 28 Nov 2014 (Local Time) from EGKB Reporting Station
Clear Clear  
Wind Chill: 50°   Ceiling: Unl
Heat Index: 50°   Visibility: 5mi
Dew Point: 46°   Wind: 8mph
Humidity: 87%   Direction: 70°ENE
Pressure: 29.71"   Gusts: NA
Location:  51.39°N, 0.18°E
Report Text: EGKB 282020Z 07007KT 8000 NSC 10/08 Q1006
Loading
Personal Weather Stations






























Interactive Weather Map New forecast layout! Learn more

10-Day Weather Forecast

Advertisements
Track Severe Weather on mobile